Laurel, New York
Current Conditions -  °F | °C
As of 10:53 PM on Friday 24 Oct 2014 (Local Time) from KFOK Reporting Station
Clear Clear  
Wind Chill: 46°   Ceiling: Unl
Heat Index: 46°   Visibility: 10mi
Dew Point: 43°   Wind: 3mph
Humidity: 89%   Direction: 270°W
Pressure: 29.82"   Gusts: NA
Location:  40.98°N, 72.55°W
Report Text: KFOK 250253Z AUTO 27003KT 10SM CLR 08/06 A2982 RMK AO2 SLP097 T00780061 51007 TSNO
Loading
Personal Weather Stations






























Interactive Weather Map
Tropical Storm Tracking
New forecast layout! Learn more

10-Day Weather Forecast

Advertisements
Track Severe Weather on mobile